Time;durP1;ratioP1;P1;durP2;ratioP2;P2;SDS_P1;SDS_P2;PMS_P1;PMS_P2;Temp;Humidity;BMP_temperature;BMP_pressure;BME280_temperature;BME280_humidity;BME280_pressure;Samples;Min_cycle;Max_cycle;Signal;HPM_P1;HPM_P2
2021/01/14 00:00:00;;;;;;;12.90;5.50;;;;;;;-2.66;75.36;92868.38;5112282;28;20031;-44
2021/01/14 00:02:26;;;;;;;12.75;6.18;;;;;;;-2.80;74.89;92847.66;5111443;28;20035;-41
2021/01/14 00:04:52;;;;;;;13.27;5.97;;;;;;;-2.62;74.39;92868.94;5112249;28;20057;-44
2021/01/14 00:07:19;;;;;;;12.32;5.82;;;;;;;-2.71;75.22;92869.09;5112075;28;20110;-42
2021/01/14 00:09:44;;;;;;;10.85;4.90;;;;;;;-2.97;75.53;92876.47;5112205;28;20028;-41
2021/01/14 00:12:10;;;;;;;11.40;5.30;;;;;;;-3.19;75.79;92872.31;5112052;28;20084;-42
2021/01/14 00:14:36;;;;;;;10.45;5.22;;;;;;;-3.21;75.81;92865.91;5107286;27;20027;-43
2021/01/14 00:17:01;;;;;;;12.88;6.15;;;;;;;-3.17;76.91;92861.78;5091587;28;20424;-43
2021/01/14 00:19:27;;;;;;;17.80;7.40;;;;;;;-3.05;76.36;92861.91;5091748;28;20059;-42
2021/01/14 00:21:52;;;;;;;14.68;7.18;;;;;;;-2.97;75.69;92861.00;5091683;28;20554;-42
2021/01/14 00:24:17;;;;;;;15.07;8.05;;;;;;;-3.02;75.89;92872.47;5091392;28;20036;-42
2021/01/14 00:26:43;;;;;;;11.82;6.20;;;;;;;-3.05;75.86;92870.00;5091504;28;20458;-42
2021/01/14 00:29:08;;;;;;;14.93;7.25;;;;;;;-2.96;75.82;92873.28;5091273;28;20040;-41
2021/01/14 00:31:34;;;;;;;15.07;7.07;;;;;;;-2.97;75.77;92874.50;5091369;28;20047;-41
2021/01/14 00:34:00;;;;;;;15.32;7.57;;;;;;;-3.00;76.21;92872.00;5091361;28;20070;-40
2021/01/14 00:39:23;;;;;;;10.73;5.15;;;;;;;-3.13;75.33;92866.97;5079652;28;20569;-41
2021/01/14 00:41:48;;;;;;;10.68;5.95;;;;;;;-3.13;76.19;92870.41;5091205;28;20419;-43
2021/01/14 00:44:14;;;;;;;15.15;7.85;;;;;;;-3.03;75.31;92868.28;5091234;28;20028;-42
2021/01/14 00:46:39;;;;;;;26.10;11.90;;;;;;;-2.97;75.05;92868.34;5091143;28;20453;-42
2021/01/14 00:49:05;;;;;;;14.13;9.15;;;;;;;-3.00;75.40;92863.91;5090941;28;20032;-43
2021/01/14 00:51:37;;;;;;;14.65;7.72;;;;;;;-2.93;76.51;92858.06;5090956;28;20043;-43
2021/01/14 00:54:05;;;;;;;14.10;7.13;;;;;;;-2.90;76.18;92851.75;5090954;28;20031;-43
2021/01/14 00:56:40;;;;;;;14.37;7.67;;;;;;;-2.87;75.22;92861.56;5091006;28;20028;-43
2021/01/14 00:59:06;;;;;;;12.60;5.82;;;;;;;-2.89;75.35;92864.00;5091276;28;20028;-40
2021/01/14 01:01:32;;;;;;;13.57;5.68;;;;;;;-2.89;75.61;92853.19;5090970;28;20036;-41
2021/01/14 01:03:58;;;;;;;10.35;4.22;;;;;;;-2.88;75.02;92854.69;5090915;28;20039;-42
2021/01/14 01:06:24;;;;;;;6.63;3.60;;;;;;;-2.82;74.63;92850.84;5110174;28;20028;-45
2021/01/14 01:08:50;;;;;;;7.53;3.92;;;;;;;-2.88;75.34;92844.63;5111293;28;20034;-42
2021/01/14 01:11:26;;;;;;;5.85;3.28;;;;;;;-2.89;74.45;92837.75;5111094;28;20046;-44
2021/01/14 01:13:52;;;;;;;7.05;4.13;;;;;;;-2.99;73.91;92841.84;5110925;28;20065;-42
2021/01/14 01:16:18;;;;;;;10.93;3.85;;;;;;;-3.05;74.21;92840.28;5111054;28;20164;-41
2021/01/14 01:18:44;;;;;;;10.50;5.38;;;;;;;-3.13;74.28;92845.38;5111022;28;20038;-42
2021/01/14 01:21:09;;;;;;;9.75;5.57;;;;;;;-3.12;74.77;92836.06;5110981;28;20040;-42
2021/01/14 01:23:35;;;;;;;9.30;6.07;;;;;;;-3.28;74.90;92840.06;5111021;28;20035;-43
2021/01/14 01:26:01;;;;;;;8.85;4.93;;;;;;;-3.44;75.17;92821.72;5110934;28;20023;-41
2021/01/14 01:28:26;;;;;;;7.60;4.18;;;;;;;-3.45;74.91;92839.16;5110733;28;20428;-41
2021/01/14 01:30:52;;;;;;;6.38;3.80;;;;;;;-3.57;75.86;92840.22;5110912;28;20028;-40
2021/01/14 01:33:17;;;;;;;6.70;4.35;;;;;;;-3.42;75.48;92845.56;5110981;28;20027;-41
2021/01/14 01:35:48;;;;;;;6.72;3.90;;;;;;;-3.47;75.29;92838.13;5110875;28;20027;-43
2021/01/14 01:38:13;;;;;;;12.88;5.43;;;;;;;-3.55;75.97;92842.47;5110892;28;20020;-42
2021/01/14 01:40:39;;;;;;;8.60;5.00;;;;;;;-3.51;75.37;92824.09;5110928;28;20107;-41
2021/01/14 01:43:04;;;;;;;9.10;4.75;;;;;;;-3.73;75.76;92827.28;5111032;28;20027;-41
2021/01/14 01:45:30;;;;;;;8.55;5.28;;;;;;;-3.63;75.83;92827.88;5110914;28;20027;-40
2021/01/14 01:47:55;;;;;;;8.57;4.93;;;;;;;-3.77;75.43;92824.06;5110781;28;20046;-41
2021/01/14 01:50:21;;;;;;;9.88;5.32;;;;;;;-3.83;76.30;92828.63;5110831;28;20031;-41
2021/01/14 01:52:48;;;;;;;7.97;3.53;;;;;;;-3.89;75.72;92827.81;5110707;28;20035;-42
2021/01/14 01:55:13;;;;;;;6.90;4.13;;;;;;;-3.95;75.41;92825.06;5109802;28;20023;-40
2021/01/14 01:57:39;;;;;;;7.65;4.03;;;;;;;-4.15;76.31;92825.03;5109505;28;20034;-40
2021/01/14 02:00:05;;;;;;;8.60;3.95;;;;;;;-4.32;76.18;92826.75;5109384;28;20031;-41
2021/01/14 02:02:30;;;;;;;8.55;3.72;;;;;;;-4.35;75.56;92825.00;5110746;28;20038;-40
2021/01/14 02:04:57;;;;;;;6.82;3.40;;;;;;;-4.29;75.35;92823.16;5110679;28;20024;-43
2021/01/14 02:07:34;;;;;;;6.00;3.00;;;;;;;-4.74;76.39;92826.38;5110591;28;20472;-40
2021/01/14 02:10:00;;;;;;;5.20;3.08;;;;;;;-4.91;77.36;92826.09;5109441;28;20035;-41
2021/01/14 02:12:32;;;;;;;7.45;3.42;;;;;;;-4.92;78.30;92829.28;5109248;28;20032;-40
2021/01/14 02:14:58;;;;;;;8.27;3.15;;;;;;;-5.07;78.67;92818.53;5109286;28;20024;-42
2021/01/14 02:17:26;;;;;;;11.38;3.50;;;;;;;-5.05;78.33;92821.50;5109363;28;20031;-40
2021/01/14 02:19:53;;;;;;;8.52;3.80;;;;;;;-4.94;78.02;92824.38;5110331;28;20026;-42
2021/01/14 02:22:23;;;;;;;6.13;3.35;;;;;;;-4.79;78.82;92821.66;5110543;28;20032;-40
2021/01/14 02:25:20;;;;;;;10.52;4.40;;;;;;;-4.66;78.59;92819.41;5109150;28;20027;-43
2021/01/14 02:27:46;;;;;;;9.73;5.40;;;;;;;-4.72;77.73;92822.00;5111700;28;20039;-40
2021/01/14 02:30:12;;;;;;;7.93;4.68;;;;;;;-4.73;77.07;92823.22;5114023;28;20061;-41
2021/01/14 02:32:38;;;;;;;10.95;3.95;;;;;;;-4.76;76.91;92816.06;5114094;28;20062;-41
2021/01/14 02:35:04;;;;;;;10.18;5.78;;;;;;;-4.82;76.75;92811.81;5114042;28;20450;-40
2021/01/14 02:37:30;;;;;;;9.25;5.97;;;;;;;-4.87;76.43;92805.13;5113893;28;20042;-40
2021/01/14 02:39:55;;;;;;;12.63;6.55;;;;;;;-4.87;76.71;92805.13;5113791;28;20020;-41
2021/01/14 02:42:21;;;;;;;9.68;5.38;;;;;;;-4.92;76.61;92802.34;5113780;28;20047;-40
2021/01/14 02:44:46;;;;;;;7.35;4.22;;;;;;;-5.00;76.76;92806.63;5107305;28;20032;-40
2021/01/14 02:47:12;;;;;;;7.30;4.65;;;;;;;-5.20;76.04;92806.53;5093411;28;20028;-42
2021/01/14 02:49:48;;;;;;;9.48;3.80;;;;;;;-5.17;75.14;92802.91;5092098;28;20509;-40
2021/01/14 02:52:14;;;;;;;5.18;3.17;;;;;;;-5.32;75.79;92812.91;5092493;28;20041;-42
2021/01/14 02:54:40;;;;;;;5.57;3.63;;;;;;;-5.54;75.58;92807.88;5093217;28;20408;-40
2021/01/14 02:57:08;;;;;;;6.32;3.25;;;;;;;-5.68;76.21;92808.63;5092014;28;20035;-40
2021/01/14 02:59:33;;;;;;;5.32;3.08;;;;;;;-5.49;75.88;92810.69;5093095;28;20020;-40
2021/01/14 03:01:59;;;;;;;5.13;2.92;;;;;;;-5.46;74.75;92819.78;5093253;28;20039;-40
2021/01/14 03:04:24;;;;;;;7.47;3.45;;;;;;;-5.60;74.98;92812.44;5093036;28;20412;-40
2021/01/14 03:06:49;;;;;;;4.78;3.13;;;;;;;-5.66;75.41;92803.53;5092983;28;20040;-40
2021/01/14 03:09:15;;;;;;;14.68;5.93;;;;;;;-5.61;76.28;92813.66;5093011;28;20081;-40
2021/01/14 03:11:40;;;;;;;24.95;9.20;;;;;;;-5.63;77.15;92811.41;5092969;28;20082;-40
2021/01/14 03:14:06;;;;;;;24.40;9.98;;;;;;;-5.58;76.38;92808.06;5092717;28;20028;-40
2021/01/14 03:16:40;;;;;;;16.73;9.48;;;;;;;-5.58;75.93;92801.94;5092939;28;20031;-40
2021/01/14 03:19:06;;;;;;;23.25;9.07;;;;;;;-5.65;76.13;92813.09;5092740;28;20032;-40
2021/01/14 03:21:32;;;;;;;19.55;9.50;;;;;;;-5.90;75.65;92817.03;5092713;28;20028;-40
2021/01/14 03:23:57;;;;;;;12.18;6.40;;;;;;;-5.94;75.74;92832.59;5092716;28;20113;-40
2021/01/14 03:26:23;;;;;;;10.63;4.38;;;;;;;-6.02;75.19;92830.72;5092692;28;20027;-40
2021/01/14 03:28:49;;;;;;;9.05;4.05;;;;;;;-6.20;75.22;92820.81;5092361;28;20059;-40
2021/01/14 03:31:16;;;;;;;9.77;5.78;;;;;;;-6.31;75.94;92821.34;5092649;28;20028;-40
2021/01/14 03:33:42;;;;;;;11.35;6.28;;;;;;;-6.43;75.99;92816.91;5092475;28;20035;-40
2021/01/14 03:36:08;;;;;;;13.27;7.03;;;;;;;-6.27;76.13;92807.72;5109365;28;20062;-40
2021/01/14 03:38:35;;;;;;;12.98;6.78;;;;;;;-6.21;76.23;92812.00;5112857;28;20107;-40
2021/01/14 03:41:01;;;;;;;12.90;6.95;;;;;;;-6.22;76.43;92786.38;5112721;28;20096;-40
2021/01/14 03:43:27;;;;;;;14.73;6.38;;;;;;;-6.15;75.56;92797.97;5112639;28;20028;-41
2021/01/14 03:45:52;;;;;;;7.78;4.55;;;;;;;-6.32;75.23;92801.03;5112762;28;20027;-40
2021/01/14 03:48:17;;;;;;;8.10;3.45;;;;;;;-6.36;74.87;92795.09;5112550;28;20492;-40
2021/01/14 03:50:43;;;;;;;6.05;3.72;;;;;;;-6.45;74.15;92786.34;5112594;28;20019;-40
2021/01/14 03:53:08;;;;;;;6.53;3.80;;;;;;;-6.49;74.21;92780.41;5112442;28;20070;-39
2021/01/14 03:55:34;;;;;;;10.90;4.63;;;;;;;-6.44;75.43;92790.53;5112507;28;20045;-40
2021/01/14 03:57:59;;;;;;;11.07;3.95;;;;;;;-6.41;74.66;92787.66;5112306;28;20424;-40
2021/01/14 04:00:25;;;;;;;11.95;6.72;;;;;;;-6.39;74.94;92792.59;5112340;28;20417;-40
2021/01/14 04:02:51;;;;;;;12.10;6.40;;;;;;;-6.50;74.45;92781.63;5112567;28;20034;-39
2021/01/14 04:05:16;;;;;;;17.65;7.28;;;;;;;-6.62;75.01;92782.56;5112227;28;20397;-40
2021/01/14 04:07:42;;;;;;;11.13;5.18;;;;;;;-6.75;74.39;92766.66;5112112;28;20027;-41
2021/01/14 04:10:08;;;;;;;9.80;4.25;;;;;;;-6.59;73.48;92784.34;5112067;28;20408;-39
2021/01/14 04:12:33;;;;;;;9.50;5.57;;;;;;;-6.71;72.91;92779.94;5112118;28;20023;-39
2021/01/14 04:14:59;;;;;;;13.70;6.82;;;;;;;-6.87;74.07;92773.00;5112134;28;20445;-40
2021/01/14 04:17:26;;;;;;;17.73;6.00;;;;;;;-6.91;74.10;92779.72;5112046;28;20047;-40
2021/01/14 04:19:51;;;;;;;13.65;6.65;;;;;;;-6.86;73.27;92765.69;5111904;28;20035;-40
2021/01/14 04:22:16;;;;;;;11.63;5.97;;;;;;;-7.00;73.98;92781.25;5111898;28;20034;-39
2021/01/14 04:24:42;;;;;;;4.53;3.17;;;;;;;-7.03;74.30;92781.41;5111113;28;20099;-40
2021/01/14 04:27:08;;;;;;;8.23;5.45;;;;;;;-6.96;73.76;92775.72;5111799;28;20024;-39
2021/01/14 04:29:33;;;;;;;16.58;8.13;;;;;;;-6.90;73.32;92773.16;5111791;28;20054;-39
2021/01/14 04:31:59;;;;;;;24.75;10.55;;;;;;;-7.10;73.50;92779.03;5111709;28;20037;-39
2021/01/14 04:34:24;;;;;;;13.07;4.97;;;;;;;-7.09;74.00;92778.59;5111691;28;20027;-39
2021/01/14 04:37:00;;;;;;;13.57;7.00;;;;;;;-7.16;73.12;92781.59;5111677;28;20036;-39
2021/01/14 04:39:25;;;;;;;7.30;4.70;;;;;;;-7.38;73.92;92778.38;5111524;28;20450;-39
2021/01/14 04:41:56;;;;;;;10.77;5.32;;;;;;;-7.59;74.68;92770.53;5111768;28;20035;-39
2021/01/14 04:44:24;;;;;;;10.45;4.35;;;;;;;-7.65;74.75;92753.59;5111561;28;20059;-39
2021/01/14 04:46:50;;;;;;;10.23;5.15;;;;;;;-7.82;75.93;92750.50;5111448;28;20030;-39
2021/01/14 04:49:17;;;;;;;11.90;4.45;;;;;;;-7.67;76.81;92755.97;5109929;28;20032;-39
2021/01/14 04:51:45;;;;;;;8.55;3.47;;;;;;;-7.54;75.36;92751.19;5111431;28;20023;-39
2021/01/14 04:54:13;;;;;;;8.13;4.72;;;;;;;-7.49;74.49;92747.91;5111429;28;20530;-39
2021/01/14 04:56:39;;;;;;;;;;;;;;;-7.56;74.03;92756.25;5111906;28;20040;-39
2021/01/14 04:59:04;;;;;;;5.63;3.38;;;;;;;-7.89;75.44;92746.19;5110152;28;20388;-39
2021/01/14 05:01:33;;;;;;;16.48;9.30;;;;;;;-7.68;75.37;92749.88;5111235;28;20035;-39
2021/01/14 05:03:59;;;;;;;18.92;9.32;;;;;;;-7.62;75.13;92750.03;5111310;28;20024;-39
2021/01/14 05:06:25;;;;;;;20.42;8.63;;;;;;;-7.49;74.54;92747.91;5109985;28;20061;-39
2021/01/14 05:08:56;;;;;;;35.20;17.02;;;;;;;-7.61;74.43;92748.81;5111117;28;20522;-39
2021/01/14 05:11:25;;;;;;;28.35;12.52;;;;;;;-7.60;74.33;92747.63;5111204;28;20046;-39
2021/01/14 05:13:50;;;;;;;;;;;;;;;-7.65;73.54;92748.22;5111587;28;20063;-39
2021/01/14 05:16:15;;;;;;;21.95;6.78;;;;;;;-7.78;73.62;92751.09;5110515;28;19967;-39
2021/01/14 05:18:41;;;;;;;28.08;10.20;;;;;;;-7.82;73.56;92755.84;5110960;28;20396;-39
2021/01/14 05:21:06;;;;;;;18.63;7.78;;;;;;;-7.79;73.67;92753.00;5110990;28;20035;-39
2021/01/14 05:23:32;;;;;;;19.58;9.75;;;;;;;-7.92;73.68;92760.47;5111057;28;20057;-39
2021/01/14 05:25:59;;;;;;;19.15;8.15;;;;;;;-7.92;73.73;92768.50;5111074;28;20124;-39
2021/01/14 05:28:31;;;;;;;24.98;9.55;;;;;;;-7.80;72.86;92754.22;5110911;28;20470;-39
2021/01/14 05:31:18;;;;;;;16.05;8.65;;;;;;;-7.82;72.10;92764.63;5110739;28;20427;-40
2021/01/14 05:33:43;;;;;;;14.55;8.07;;;;;;;-7.86;71.93;92749.91;5110807;28;20027;-39
2021/01/14 05:36:09;;;;;;;16.90;8.55;;;;;;;-8.17;71.94;92738.63;5110856;28;20032;-39
2021/01/14 05:38:35;;;;;;;17.58;7.40;;;;;;;-8.27;72.95;92735.22;5110866;28;20084;-39
2021/01/14 05:41:18;;;;;;;9.77;5.68;;;;;;;-8.31;73.89;92734.63;5110876;28;20138;-39
2021/01/14 05:43:51;;;;;;;15.55;7.55;;;;;;;-8.25;74.64;92732.13;5111180;28;20028;-39
2021/01/14 05:46:19;;;;;;;15.30;8.25;;;;;;;-8.33;74.20;92738.94;5110893;28;20035;-39
2021/01/14 05:48:45;;;;;;;79.32;26.45;;;;;;;-8.18;75.26;92729.09;5110967;28;20016;-39
2021/01/14 05:51:20;;;;;;;67.57;27.00;;;;;;;-8.14;76.34;92729.69;5111110;28;20032;-39
2021/01/14 05:54:00;;;;;;;61.97;24.95;;;;;;;-8.16;75.99;92730.13;5110812;28;20091;-39
2021/01/14 05:56:49;;;;;;;50.78;21.10;;;;;;;-8.17;76.31;92733.25;5110696;28;20022;-39
2021/01/14 05:59:15;;;;;;;55.80;23.85;;;;;;;-8.06;75.84;92728.94;5110681;28;20092;-39
2021/01/14 06:01:57;;;;;;;58.28;22.25;;;;;;;-7.97;74.55;92730.88;5113207;28;20099;-39
2021/01/14 06:04:24;;;;;;;59.72;22.75;;;;;;;-7.81;73.21;92730.53;5111998;28;20051;-39
2021/01/14 06:06:51;;;;;;;55.53;24.42;;;;;;;-7.68;73.19;92741.06;5094254;28;20061;-39
2021/01/14 06:09:19;;;;;;;65.22;25.35;;;;;;;-7.72;74.28;92744.66;5094207;28;20027;-39
2021/01/14 06:11:46;;;;;;;71.47;26.85;;;;;;;-8.09;72.25;92745.16;5094111;28;20032;-39
2021/01/14 06:14:31;;;;;;;71.53;30.98;;;;;;;-7.98;73.61;92753.47;5094011;28;20028;-39
2021/01/14 06:17:00;;;;;;;80.32;32.92;;;;;;;-7.86;73.92;92750.63;5093975;28;20040;-39
2021/01/14 06:19:27;;;;;;;104.95;39.63;;;;;;;-7.82;73.44;92753.19;5094005;28;20473;-40
2021/01/14 06:21:55;;;;;;;84.03;33.65;;;;;;;-7.77;73.04;92741.84;5093962;28;20149;-39
2021/01/14 06:24:36;;;;;;;57.15;23.70;;;;;;;-7.99;73.46;92747.38;5093819;28;20028;-38
2021/01/14 06:27:04;;;;;;;58.42;24.92;;;;;;;-7.94;74.19;92748.72;5093919;28;20043;-39
2021/01/14 06:29:31;;;;;;;45.35;18.27;;;;;;;-7.93;74.36;92758.25;5093775;28;20056;-39
2021/01/14 06:32:15;;;;;;;25.58;10.70;;;;;;;-7.84;73.55;92753.59;5093966;28;20032;-39
2021/01/14 06:34:43;;;;;;;23.45;10.75;;;;;;;-7.84;73.68;92750.94;5093666;28;20479;-39
2021/01/14 06:37:18;;;;;;;34.20;15.07;;;;;;;-7.91;73.07;92743.22;5093649;28;20028;-39
2021/01/14 06:39:45;;;;;;;27.80;12.73;;;;;;;-7.93;74.34;92748.28;5093755;28;20032;-39
2021/01/14 06:42:29;;;;;;;21.90;8.57;;;;;;;-7.66;75.16;92749.41;5093748;28;20042;-39
2021/01/14 06:45:04;;;;;;;27.55;12.27;;;;;;;-7.43;75.35;92746.09;5093503;28;20057;-39
2021/01/14 06:47:41;;;;;;;31.63;14.52;;;;;;;-7.22;75.35;92745.13;5093370;28;20046;-39
2021/01/14 06:50:18;;;;;;;54.58;16.45;;;;;;;-7.00;75.13;92746.38;5093356;28;20048;-39
2021/01/14 06:53:02;;;;;;;40.97;20.17;;;;;;;-6.83;75.09;92744.06;5093415;28;20028;-39
2021/01/14 06:55:34;;;;;;;36.08;17.13;;;;;;;-6.64;74.49;92750.81;5093564;28;20443;-39
2021/01/14 06:58:03;;;;;;;24.52;12.40;;;;;;;-6.60;73.34;92748.69;5093264;28;20032;-39
2021/01/14 07:00:29;;;;;;;30.17;16.45;;;;;;;-6.55;72.48;92744.63;5093160;28;20047;-39
2021/01/14 07:03:16;;;;;;;63.05;27.70;;;;;;;-6.46;72.02;92736.53;5093069;28;20024;-39
2021/01/14 07:05:54;;;;;;;73.90;29.20;;;;;;;-6.46;71.55;92733.84;5093178;28;20027;-40
2021/01/14 07:08:42;;;;;;;55.58;26.55;;;;;;;-6.44;72.13;92739.50;5091867;28;20411;-40
2021/01/14 07:11:17;;;;;;;82.33;32.93;;;;;;;-6.21;74.01;92736.03;5092720;28;20044;-39
2021/01/14 07:13:48;;;;;;;107.55;38.33;;;;;;;-5.82;74.83;92744.81;5092937;28;20032;-39
2021/01/14 07:16:16;;;;;;;103.05;39.85;;;;;;;-5.49;74.08;92735.38;5092873;28;20493;-39
2021/01/14 07:18:44;;;;;;;126.35;46.22;;;;;;;-5.05;71.51;92732.69;5092875;28;20024;-39
2021/01/14 07:21:18;;;;;;;98.13;40.78;;;;;;;-4.66;71.43;92730.53;5092708;28;20118;-39
2021/01/14 07:24:18;;;;;;;86.43;35.78;;;;;;;-4.44;70.12;92732.78;5092954;28;20028;-39
2021/01/14 07:26:47;;;;;;;60.28;27.80;;;;;;;-4.26;71.22;92735.22;5090293;28;20040;-39
2021/01/14 07:29:14;;;;;;;51.17;20.15;;;;;;;-3.46;69.86;92739.75;5092414;28;20428;-40
2021/01/14 07:31:53;;;;;;;35.92;17.33;;;;;;;-2.90;67.34;92736.31;5092632;28;20050;-39
2021/01/14 07:34:25;;;;;;;42.33;21.00;;;;;;;-2.64;64.86;92736.28;5092508;28;20028;-39
2021/01/14 07:36:50;;;;;;;24.48;13.75;;;;;;;-2.69;64.70;92728.88;5092443;28;20035;-39
2021/01/14 07:39:16;;;;;;;27.73;14.75;;;;;;;-2.25;65.85;92731.09;5092363;28;20020;-40
2021/01/14 07:41:55;;;;;;;43.40;24.23;;;;;;;-1.86;65.53;92734.69;5092455;28;20036;-39
2021/01/14 07:44:21;;;;;;;43.08;22.20;;;;;;;-1.44;63.94;92733.84;5092653;28;20032;-39
2021/01/14 07:46:50;;;;;;;48.25;23.23;;;;;;;-0.87;62.42;92743.00;5091072;28;20032;-39
2021/01/14 07:49:28;;;;;;;54.97;24.38;;;;;;;-0.16;60.40;92733.34;5091086;28;20024;-40
2021/01/14 07:51:53;;;;;;;53.25;24.58;;;;;;;0.21;58.80;92735.69;5092251;28;20527;-40
2021/01/14 07:54:19;;;;;;;65.13;27.67;;;;;;;0.30;59.38;92737.38;5090921;28;20028;-40
2021/01/14 07:56:45;;;;;;;48.65;24.10;;;;;;;0.02;59.71;92742.91;5091018;28;20023;-40
2021/01/14 07:59:12;;;;;;;38.67;19.40;;;;;;;0.65;57.79;92740.19;5092108;28;20036;-40
2021/01/14 08:02:08;;;;;;;45.28;21.27;;;;;;;1.34;55.08;92727.84;5090822;28;20092;-40
2021/01/14 08:04:47;;;;;;;45.30;20.98;;;;;;;1.83;54.12;92725.94;5092006;28;20060;-40
2021/01/14 08:07:26;;;;;;;30.45;16.75;;;;;;;2.15;52.52;92723.34;5091898;28;20106;-40
2021/01/14 08:09:52;;;;;;;42.55;22.08;;;;;;;2.72;52.06;92728.38;5091881;28;20089;-40
2021/01/14 08:12:21;;;;;;;50.22;24.40;;;;;;;4.05;48.34;92718.06;5091811;28;20032;-40
2021/01/14 08:14:47;;;;;;;47.05;23.00;;;;;;;4.45;45.67;92711.38;5091881;28;20023;-40
2021/01/14 08:17:20;;;;;;;59.78;29.45;;;;;;;3.69;48.53;92706.06;5091744;28;20024;-40
2021/01/14 08:19:45;;;;;;;55.97;28.00;;;;;;;3.84;48.84;92711.75;5091751;28;20020;-41
2021/01/14 08:22:13;;;;;;;37.35;20.08;;;;;;;4.48;48.31;92721.22;5091639;28;20381;-40
2021/01/14 08:24:42;;;;;;;38.35;19.10;;;;;;;5.97;45.94;92717.16;5090885;28;20046;-41
2021/01/14 08:27:13;;;;;;;41.75;22.65;;;;;;;7.38;42.99;92719.72;5091663;28;20028;-41
2021/01/14 08:29:52;;;;;;;37.83;18.85;;;;;;;8.78;39.63;92720.09;5091325;28;20082;-42
2021/01/14 08:32:33;;;;;;;38.63;20.70;;;;;;;9.71;37.53;92704.03;5091607;28;20097;-42
2021/01/14 08:35:00;;;;;;;19.00;10.55;;;;;;;10.48;34.40;92685.63;5098601;28;20416;-43
2021/01/14 08:37:33;;;;;;;18.48;8.25;;;;;;;10.73;34.19;92672.50;5111692;28;20030;-42
2021/01/14 08:40:00;;;;;;;12.07;6.78;;;;;;;12.00;33.49;92663.09;5111692;28;20034;-42
2021/01/14 08:42:33;;;;;;;11.98;5.80;;;;;;;12.40;32.00;92655.06;5111525;28;20027;-42
2021/01/14 08:45:01;;;;;;;8.35;4.40;;;;;;;11.49;30.36;92644.66;5111598;28;20406;-42
2021/01/14 08:47:58;;;;;;;7.18;4.22;;;;;;;10.97;32.79;92635.03;5111478;28;20110;-42
2021/01/14 08:50:32;;;;;;;7.82;4.70;;;;;;;10.14;33.85;92642.16;5111582;28;20415;-41
2021/01/14 08:53:01;;;;;;;15.95;8.77;;;;;;;8.17;36.51;92627.94;5111425;28;20499;-41
2021/01/14 08:55:28;;;;;;;17.42;8.13;;;;;;;7.39;37.55;92610.59;5111329;28;20031;-42
2021/01/14 08:57:53;;;;;;;37.13;19.85;;;;;;;5.29;42.40;92603.59;5111431;28;20171;-41
2021/01/14 09:00:19;;;;;;;31.58;16.75;;;;;;;4.88;44.94;92600.84;5111243;28;20027;-41
2021/01/14 09:02:45;;;;;;;22.00;12.48;;;;;;;3.96;46.33;92595.63;5111410;28;20034;-41
2021/01/14 09:05:12;;;;;;;56.50;26.90;;;;;;;3.21;49.44;92592.53;5111241;28;20027;-41
2021/01/14 09:07:37;;;;;;;14.60;8.32;;;;;;;3.34;50.23;92597.25;5111210;28;20027;-41
2021/01/14 09:10:03;;;;;;;8.20;4.88;;;;;;;4.06;47.30;92587.72;5111318;28;20027;-43
2021/01/14 09:12:29;;;;;;;13.98;9.68;;;;;;;4.40;45.82;92570.09;5111306;28;20458;-42
2021/01/14 09:14:54;;;;;;;9.82;7.10;;;;;;;5.00;44.72;92577.44;5111325;28;20110;-42
2021/01/14 09:17:20;;;;;;;8.45;4.30;;;;;;;6.11;41.44;92569.81;5111086;28;20038;-42
2021/01/14 09:19:54;;;;;;;13.63;8.13;;;;;;;7.04;39.42;92559.31;5109832;28;20034;-45
2021/01/14 09:22:26;;;;;;;8.65;4.90;;;;;;;8.41;36.91;92544.84;5111086;28;20046;-43
2021/01/14 09:24:52;;;;;;;7.50;4.60;;;;;;;10.24;34.34;92543.69;5103607;28;20030;-43
2021/01/14 09:27:18;;;;;;;12.43;5.30;;;;;;;11.93;31.68;92554.03;5090662;28;20024;-43
2021/01/14 09:29:44;;;;;;;12.30;6.88;;;;;;;13.11;29.50;92546.63;5090490;28;20193;-43
2021/01/14 09:32:13;;;;;;;10.32;5.20;;;;;;;11.83;28.83;92539.47;5089572;28;20056;-44
2021/01/14 09:34:39;;;;;;;10.73;5.30;;;;;;;9.63;33.42;92527.00;5091494;28;20024;-44
2021/01/14 09:37:18;;;;;;;6.90;4.95;;;;;;;8.56;35.37;92528.28;5094841;28;20527;-43
2021/01/14 09:39:45;;;;;;;8.85;5.05;;;;;;;7.95;36.01;92516.03;5094761;28;20024;-43
2021/01/14 09:42:16;;;;;;;8.73;4.82;;;;;;;7.96;36.38;92518.22;5094904;28;20050;-42
2021/01/14 09:44:42;;;;;;;8.73;4.60;;;;;;;8.09;37.17;92522.75;5093534;28;20032;-43
2021/01/14 09:47:08;;;;;;;21.10;11.15;;;;;;;8.07;37.37;92500.59;5093370;28;20085;-43
2021/01/14 09:49:33;;;;;;;9.00;4.78;;;;;;;7.84;36.70;92475.91;5093309;28;20420;-44
2021/01/14 09:51:59;;;;;;;4.97;3.50;;;;;;;8.63;36.97;92472.47;5093423;28;20024;-43
2021/01/14 09:54:24;;;;;;;9.70;5.55;;;;;;;9.59;35.70;92468.78;5094452;28;20035;-44
2021/01/14 09:56:51;;;;;;;17.95;10.48;;;;;;;10.90;33.17;92461.88;5093312;28;20031;-43
2021/01/14 09:59:41;;;;;;;5.53;4.10;;;;;;;12.01;30.14;92465.38;5093129;28;20081;-44
2021/01/14 10:02:29;;;;;;;5.72;3.03;;;;;;;13.23;27.08;92472.66;5093302;28;20035;-45
2021/01/14 10:04:57;;;;;;;6.93;3.72;;;;;;;14.03;27.21;92469.72;5094356;28;20420;-43
2021/01/14 10:07:23;;;;;;;10.50;4.95;;;;;;;14.33;25.89;92465.44;5094207;28;20019;-45
2021/01/14 10:09:55;;;;;;;6.57;4.05;;;;;;;14.98;25.24;92451.50;5093015;28;20408;-45
2021/01/14 10:12:21;;;;;;;6.72;4.28;;;;;;;14.20;25.77;92432.63;5092961;28;20073;-43
2021/01/14 10:14:46;;;;;;;12.00;6.15;;;;;;;12.80;28.00;92435.69;5094149;28;20023;-45
2021/01/14 10:17:13;;;;;;;9.48;4.20;;;;;;;12.54;29.49;92431.84;5094128;28;20424;-46
2021/01/14 10:19:47;;;;;;;12.00;6.05;;;;;;;11.69;30.82;92433.34;5094011;28;20052;-48
2021/01/14 10:22:13;;;;;;;25.13;11.65;;;;;;;11.01;30.68;92450.28;5094200;28;20034;-46
2021/01/14 10:24:39;;;;;;;15.45;8.68;;;;;;;10.27;31.58;92428.69;5093995;28;20043;-49
2021/01/14 10:27:15;;;;;;;8.88;5.68;;;;;;;9.79;32.35;92423.53;5094083;28;20019;-46
2021/01/14 10:29:41;;;;;;;23.20;13.82;;;;;;;9.25;35.12;92416.38;5093710;28;20417;-46
2021/01/14 10:32:11;;;;;;;32.95;15.57;;;;;;;8.51;34.86;92421.91;5093766;28;20036;-45
2021/01/14 10:34:55;;;;;;;19.00;11.00;;;;;;;8.36;35.14;92424.75;5093895;28;20016;-45
2021/01/14 10:37:25;;;;;;;5.25;3.90;;;;;;;7.76;35.93;92416.78;5093756;28;20071;-45
2021/01/14 10:40:01;;;;;;;13.23;5.72;;;;;;;6.71;38.58;92407.50;5093632;28;20046;-44
2021/01/14 10:42:32;;;;;;;11.32;5.50;;;;;;;6.69;39.06;92386.06;5092431;28;20444;-42
2021/01/14 10:45:00;;;;;;;12.15;6.63;;;;;;;7.00;40.63;92395.00;5093551;28;20024;-46
2021/01/14 10:47:26;;;;;;;12.30;5.88;;;;;;;7.15;40.49;92416.22;5092722;28;20485;-43
2021/01/14 10:49:51;;;;;;;11.27;5.55;;;;;;;7.30;39.84;92419.66;5093553;28;20043;-44
2021/01/14 10:52:17;;;;;;;9.85;6.03;;;;;;;7.09;40.25;92426.66;5093499;28;20067;-43
2021/01/14 10:55:02;;;;;;;8.93;4.47;;;;;;;6.82;39.28;92423.59;5093317;28;20089;-44
2021/01/14 10:57:50;;;;;;;8.75;3.63;;;;;;;6.34;39.76;92430.13;5093330;28;20496;-44
2021/01/14 11:00:26;;;;;;;13.00;5.32;;;;;;;6.31;40.46;92422.97;5093135;28;20614;-49
2021/01/14 11:03:25;;;;;;;7.75;5.18;;;;;;;6.02;42.67;92405.94;5093305;28;20042;-45
2021/01/14 11:05:55;;;;;;;9.43;3.78;;;;;;;5.87;41.33;92401.16;5105316;28;20035;-44
2021/01/14 11:08:28;;;;;;;7.72;4.38;;;;;;;5.94;42.94;92402.44;5113474;28;20032;-43
2021/01/14 11:11:02;;;;;;;7.47;4.50;;;;;;;5.58;40.96;92407.97;5113338;28;20561;-46
2021/01/14 11:13:41;;;;;;;8.02;4.40;;;;;;;5.68;39.51;92408.91;5113300;28;20035;-43
2021/01/14 11:16:08;;;;;;;8.45;4.68;;;;;;;5.41;39.96;92401.50;5113431;28;20032;-43
2021/01/14 11:18:41;;;;;;;9.30;4.63;;;;;;;5.22;42.51;92429.84;5113127;28;20031;-43
2021/01/14 11:21:07;;;;;;;9.02;4.78;;;;;;;5.15;42.68;92432.56;5113233;28;20501;-44
2021/01/14 11:23:33;;;;;;;11.02;4.25;;;;;;;4.99;43.50;92431.00;5113271;27;20050;-44
2021/01/14 11:26:02;;;;;;;7.32;3.65;;;;;;;5.02;41.90;92432.66;5113145;27;20480;-45
2021/01/14 11:28:31;;;;;;;10.10;4.55;;;;;;;4.99;43.74;92422.78;5112861;28;20111;-45
2021/01/14 11:30:57;;;;;;;6.25;4.28;;;;;;;4.78;44.39;92402.97;5113005;28;20118;-44
2021/01/14 11:33:22;;;;;;;9.10;5.00;;;;;;;4.49;46.28;92410.38;5112957;28;20094;-47
2021/01/14 11:35:48;;;;;;;10.50;4.82;;;;;;;4.49;44.71;92410.38;5112964;28;20473;-45
2021/01/14 11:38:13;;;;;;;8.85;5.88;;;;;;;4.46;46.53;92393.06;5112820;28;20446;-44
2021/01/14 11:40:39;;;;;;;11.00;5.30;;;;;;;4.38;44.65;92386.06;5112747;28;20042;-43